createdAt,value
2023-06-11T00:00:27.615Z,9.70
2023-06-11T00:02:55.723Z,9.50
2023-06-11T00:05:22.923Z,11.57
2023-06-11T00:07:50.178Z,9.30
2023-06-11T00:10:17.290Z,10.90
2023-06-11T00:12:46.941Z,9.67
2023-06-11T00:15:13.714Z,9.10
2023-06-11T00:17:40.495Z,10.20
2023-06-11T00:20:10.909Z,11.00
2023-06-11T00:22:40.678Z,9.50
2023-06-11T00:25:08.914Z,10.40
2023-06-11T00:27:38.948Z,10.97
2023-06-11T00:30:07.309Z,10.33
2023-06-11T00:32:35.053Z,10.13
2023-06-11T00:35:02.462Z,10.30
2023-06-11T00:37:31.778Z,11.20
2023-06-11T00:39:58.585Z,11.40
2023-06-11T00:42:25.375Z,9.30
2023-06-11T00:44:53.105Z,9.87
2023-06-11T00:47:19.829Z,10.50
2023-06-11T00:49:46.865Z,11.07
2023-06-11T00:52:16.780Z,8.50
2023-06-11T00:54:43.689Z,10.23
2023-06-11T00:57:11.413Z,10.27
2023-06-11T00:59:41.330Z,9.87
2023-06-11T01:02:34.901Z,9.43
2023-06-11T01:05:02.595Z,9.27
2023-06-11T01:07:33.570Z,9.77
2023-06-11T01:10:00.521Z,9.40
2023-06-11T01:12:27.801Z,9.97
2023-06-11T01:14:54.513Z,10.27
2023-06-11T01:17:30.625Z,10.00
2023-06-11T01:20:08.689Z,10.57
2023-06-11T01:22:50.349Z,9.83
2023-06-11T01:25:31.298Z,10.37
2023-06-11T01:28:05.033Z,10.67
2023-06-11T01:30:40.607Z,9.60
2023-06-11T01:33:07.441Z,9.97
2023-06-11T01:35:34.885Z,9.80
2023-06-11T01:38:03.538Z,9.30
2023-06-11T01:40:30.562Z,10.73
2023-06-11T01:42:57.528Z,10.33
2023-06-11T01:45:24.632Z,9.67
2023-06-11T01:47:51.756Z,9.13
2023-06-11T01:50:18.988Z,9.67
2023-06-11T01:52:46.581Z,9.80
2023-06-11T01:55:13.568Z,10.57
2023-06-11T01:57:41.633Z,9.20
2023-06-11T02:00:12.280Z,10.80
2023-06-11T02:02:43.543Z,10.37
2023-06-11T02:05:10.568Z,11.07
2023-06-11T02:07:37.507Z,11.60
2023-06-11T02:10:04.392Z,10.23
2023-06-11T02:12:31.145Z,11.33
2023-06-11T02:14:57.900Z,11.43
2023-06-11T02:17:24.631Z,10.30
2023-06-11T02:19:51.370Z,11.50
2023-06-11T02:22:18.295Z,9.70
2023-06-11T02:24:45.492Z,10.73
2023-06-11T02:27:12.847Z,10.80
2023-06-11T02:29:39.848Z,11.00
2023-06-11T02:32:07.575Z,11.00
2023-06-11T02:34:34.904Z,9.87
2023-06-11T02:37:01.697Z,10.40
2023-06-11T02:39:28.702Z,10.20
2023-06-11T02:41:55.872Z,10.83
2023-06-11T02:44:24.303Z,10.63
2023-06-11T02:46:51.002Z,10.30
2023-06-11T02:49:17.753Z,12.17
2023-06-11T02:51:44.480Z,9.90
2023-06-11T02:54:11.271Z,9.37
2023-06-11T02:56:38.393Z,11.40
2023-06-11T02:59:06.548Z,10.77
2023-06-11T03:01:33.497Z,11.20
2023-06-11T03:04:00.808Z,9.97
2023-06-11T03:06:27.628Z,11.50
2023-06-11T03:08:56.056Z,11.07
2023-06-11T03:11:22.751Z,9.70
2023-06-11T03:13:49.501Z,9.40
2023-06-11T03:16:16.770Z,10.60
2023-06-11T03:18:43.821Z,10.10
2023-06-11T03:21:11.390Z,11.57
2023-06-11T03:23:38.207Z,10.67
2023-06-11T03:26:05.046Z,10.07
2023-06-11T03:28:31.843Z,11.03
2023-06-11T03:30:58.617Z,12.00
2023-06-11T03:33:25.532Z,12.07
2023-06-11T03:35:52.703Z,11.07
2023-06-11T03:38:20.310Z,12.03
2023-06-11T03:40:47.058Z,11.90
2023-06-11T03:43:13.858Z,12.60
2023-06-11T03:45:40.575Z,10.23
2023-06-11T03:48:09.205Z,12.17
2023-06-11T03:50:36.286Z,12.10
2023-06-11T03:53:03.081Z,12.00
2023-06-11T03:55:31.117Z,11.50
2023-06-11T03:57:57.922Z,12.10
2023-06-11T04:00:24.770Z,10.90
2023-06-11T04:02:51.775Z,12.23
2023-06-11T04:05:19.003Z,12.77
2023-06-11T04:07:46.185Z,12.63
2023-06-11T04:10:13.361Z,12.23
2023-06-11T04:12:41.015Z,12.80
2023-06-11T04:15:08.927Z,11.70
2023-06-11T04:17:36.152Z,12.67
2023-06-11T04:20:03.857Z,12.20
2023-06-11T04:22:31.372Z,11.33
2023-06-11T04:24:58.283Z,12.53
2023-06-11T04:27:25.008Z,12.17
2023-06-11T04:29:54.146Z,12.10
2023-06-11T04:32:22.250Z,11.57
2023-06-11T04:34:49.850Z,10.67
2023-06-11T04:37:17.321Z,9.60
2023-06-11T04:39:44.070Z,10.80
2023-06-11T04:42:10.787Z,9.87
2023-06-11T04:44:37.665Z,10.43
2023-06-11T04:47:06.707Z,10.20
2023-06-11T04:49:33.599Z,9.63
2023-06-11T04:52:00.634Z,9.73
2023-06-11T04:54:28.533Z,10.13
2023-06-11T04:56:56.095Z,8.53
2023-06-11T04:59:23.285Z,9.07
2023-06-11T05:01:55.235Z,9.73
2023-06-11T05:04:22.768Z,9.47
2023-06-11T05:06:50.119Z,10.00
2023-06-11T05:09:17.377Z,10.10
2023-06-11T05:11:44.761Z,9.70
2023-06-11T05:14:12.321Z,10.40
2023-06-11T05:16:40.527Z,8.90
2023-06-11T05:19:07.411Z,10.30
2023-06-11T05:21:34.392Z,10.20
2023-06-11T05:24:08.534Z,9.77
2023-06-11T05:26:35.938Z,9.80
2023-06-11T05:29:03.500Z,10.40
2023-06-11T05:31:30.967Z,8.83
2023-06-11T05:33:57.886Z,9.87
2023-06-11T05:36:24.709Z,9.67
2023-06-11T05:38:52.917Z,9.80
2023-06-11T05:41:20.402Z,9.53
2023-06-11T05:43:47.886Z,10.03
2023-06-11T05:46:15.481Z,10.10
2023-06-11T05:48:42.983Z,10.00
2023-06-11T05:51:10.643Z,10.10
2023-06-11T05:53:37.973Z,9.70
2023-06-11T05:56:06.361Z,9.33
2023-06-11T05:58:34.621Z,9.23
2023-06-11T06:01:05.215Z,11.73
2023-06-11T06:03:33.023Z,8.93
2023-06-11T06:06:01.298Z,8.97
2023-06-11T06:08:34.583Z,9.10
2023-06-11T06:11:01.551Z,8.87
2023-06-11T06:13:28.813Z,8.50
2023-06-11T06:15:55.687Z,9.70
2023-06-11T06:18:22.508Z,8.93
2023-06-11T06:20:49.654Z,9.37
2023-06-11T06:23:16.628Z,9.40
2023-06-11T06:25:43.834Z,7.73
2023-06-11T06:28:10.628Z,8.20
2023-06-11T06:30:40.036Z,8.40
2023-06-11T06:33:06.994Z,8.00
2023-06-11T06:35:34.172Z,8.93
2023-06-11T06:38:01.351Z,8.20
2023-06-11T06:40:28.895Z,7.67
2023-06-11T06:42:55.896Z,7.80
2023-06-11T06:45:23.228Z,7.43
2023-06-11T06:47:50.084Z,7.77
2023-06-11T06:50:16.985Z,7.33
2023-06-11T06:52:43.933Z,8.00
2023-06-11T06:55:10.860Z,8.20
2023-06-11T06:57:37.721Z,7.73
2023-06-11T07:00:09.249Z,6.67
2023-06-11T07:02:39.344Z,7.20
2023-06-11T07:05:07.144Z,6.90
2023-06-11T07:07:34.321Z,6.67
2023-06-11T07:10:01.089Z,6.47
2023-06-11T07:12:29.009Z,6.50
2023-06-11T07:14:56.131Z,7.40
2023-06-11T07:17:25.158Z,6.50
2023-06-11T07:19:52.055Z,6.07
2023-06-11T07:22:18.828Z,5.83
2023-06-11T07:24:48.288Z,5.37
2023-06-11T07:27:15.606Z,6.20
2023-06-11T07:29:42.825Z,6.17
2023-06-11T07:32:09.596Z,5.50
2023-06-11T07:34:36.546Z,6.10
2023-06-11T07:37:03.709Z,6.00
2023-06-11T07:39:30.666Z,6.53
2023-06-11T07:41:57.522Z,5.80
2023-06-11T07:44:24.306Z,5.43
2023-06-11T07:46:51.438Z,5.70
2023-06-11T07:49:18.302Z,5.60
2023-06-11T07:51:47.227Z,5.20
2023-06-11T07:54:13.960Z,5.70
2023-06-11T07:56:40.749Z,6.10
2023-06-11T07:59:08.040Z,6.13
2023-06-11T08:01:34.927Z,6.77
2023-06-11T08:04:01.704Z,6.20
2023-06-11T08:06:28.746Z,6.67
2023-06-11T08:08:57.400Z,6.03
2023-06-11T08:11:24.870Z,6.07
2023-06-11T08:13:51.846Z,5.30
2023-06-11T08:16:19.486Z,5.90
2023-06-11T08:18:46.308Z,5.30
2023-06-11T08:21:13.020Z,5.83
2023-06-11T08:23:40.441Z,5.60
2023-06-11T08:26:07.838Z,6.10
2023-06-11T08:28:36.061Z,5.33
2023-06-11T08:34:50.983Z,6.10
2023-06-11T08:37:17.748Z,5.50
2023-06-11T08:39:44.419Z,5.67
2023-06-11T08:42:11.780Z,5.93
2023-06-11T08:44:38.854Z,6.03
2023-06-11T08:47:06.025Z,5.50
2023-06-11T08:49:32.746Z,5.33
2023-06-11T08:52:01.736Z,6.37
2023-06-11T08:54:28.439Z,5.20
2023-06-11T08:56:55.126Z,5.63
2023-06-11T08:59:21.812Z,5.80
2023-06-11T09:01:52.087Z,6.60
2023-06-11T09:04:19.956Z,6.30
2023-06-11T09:06:57.380Z,6.03
2023-06-11T09:09:24.076Z,6.50
2023-06-11T09:11:50.802Z,5.80
2023-06-11T09:14:17.493Z,6.07
2023-06-11T09:16:45.698Z,6.33
2023-06-11T09:19:13.919Z,5.70
2023-06-11T09:21:51.857Z,5.33
2023-06-11T09:24:20.614Z,5.80
2023-06-11T09:26:55.374Z,5.90
2023-06-11T09:29:27.991Z,5.53
2023-06-11T09:32:19.555Z,5.47
2023-06-11T09:34:57.313Z,5.97
2023-06-11T09:37:24.161Z,4.77
2023-06-11T09:39:51.261Z,5.40
2023-06-11T09:42:28.339Z,5.60
2023-06-11T09:45:01.545Z,5.20
2023-06-11T09:47:29.697Z,5.27
2023-06-11T09:49:56.675Z,5.33
2023-06-11T09:52:24.116Z,5.30
2023-06-11T09:54:51.755Z,5.20
2023-06-11T09:57:18.649Z,5.57
2023-06-11T09:59:45.998Z,5.10
2023-06-11T10:02:12.717Z,6.57
2023-06-11T10:04:40.937Z,4.93
2023-06-11T10:07:08.229Z,5.43
2023-06-11T10:09:34.995Z,5.27
2023-06-11T10:12:01.751Z,5.30
2023-06-11T10:14:28.557Z,5.07
2023-06-11T10:16:55.786Z,6.07
2023-06-11T10:19:25.549Z,5.87
2023-06-11T10:21:53.102Z,5.53
2023-06-11T10:24:23.847Z,5.43
2023-06-11T10:27:09.982Z,6.07
2023-06-11T10:29:40.759Z,5.50
2023-06-11T10:32:23.385Z,5.80
2023-06-11T10:35:05.880Z,4.77
2023-06-11T10:37:38.784Z,6.53
2023-06-11T10:40:09.588Z,5.20
2023-06-11T10:42:40.480Z,6.30
2023-06-11T10:45:13.976Z,5.37
2023-06-11T10:47:44.756Z,6.03
2023-06-11T10:50:13.394Z,4.90
2023-06-11T10:52:53.346Z,5.57
2023-06-11T10:55:21.686Z,5.20
2023-06-11T10:57:54.740Z,5.00
2023-06-11T11:00:21.791Z,5.27
2023-06-11T11:02:48.843Z,5.10
2023-06-11T11:05:15.675Z,5.23
2023-06-11T11:07:45.769Z,5.60
2023-06-11T11:10:13.404Z,6.17
2023-06-11T11:12:44.196Z,5.27
2023-06-11T11:15:12.064Z,5.10
2023-06-11T11:17:42.603Z,5.87
2023-06-11T11:20:18.413Z,5.27
2023-06-11T11:22:55.466Z,5.03
2023-06-11T11:25:23.257Z,5.63
2023-06-11T11:27:50.107Z,5.80
2023-06-11T11:30:17.432Z,4.90
2023-06-11T11:32:44.244Z,5.60
2023-06-11T11:35:20.125Z,5.00
2023-06-11T11:37:47.109Z,4.90
2023-06-11T11:40:14.503Z,5.30
2023-06-11T11:42:47.344Z,5.27
2023-06-11T11:45:15.318Z,5.13
2023-06-11T11:47:44.096Z,4.70
2023-06-11T11:50:19.505Z,4.97
2023-06-11T11:52:47.028Z,5.07
2023-06-11T11:55:13.896Z,4.90
2023-06-11T11:57:41.485Z,4.80
2023-06-11T12:00:09.551Z,4.93
2023-06-11T12:02:43.204Z,5.67
2023-06-11T12:05:16.937Z,5.13
2023-06-11T12:07:52.562Z,5.00
2023-06-11T12:10:19.355Z,4.23
2023-06-11T12:12:46.528Z,5.13
2023-06-11T12:15:14.146Z,5.13
2023-06-11T12:17:41.847Z,5.43
2023-06-11T12:20:09.601Z,5.40
2023-06-11T12:22:36.806Z,5.20
2023-06-11T12:25:03.899Z,4.90
2023-06-11T12:27:30.893Z,4.33
2023-06-11T12:29:58.503Z,4.20
2023-06-11T12:32:26.432Z,5.07
2023-06-11T12:34:53.730Z,5.00
2023-06-11T12:37:21.208Z,4.90
2023-06-11T12:39:49.140Z,4.50
2023-06-11T12:42:16.208Z,4.50
2023-06-11T12:44:48.882Z,4.70
2023-06-11T12:47:16.206Z,3.83
2023-06-11T12:49:42.947Z,5.03
2023-06-11T12:52:11.689Z,4.60
2023-06-11T12:54:38.717Z,4.37
2023-06-11T12:57:06.081Z,4.23
2023-06-11T12:59:32.854Z,4.10
2023-06-11T13:01:59.623Z,4.40
2023-06-11T13:04:26.388Z,4.83
2023-06-11T13:06:53.531Z,3.60
2023-06-11T13:09:20.348Z,4.90
2023-06-11T13:11:47.037Z,4.30
2023-06-11T13:14:16.136Z,4.60
2023-06-11T13:16:44.110Z,5.90
2023-06-11T13:19:11.237Z,4.10
2023-06-11T13:21:37.933Z,4.70
2023-06-11T13:24:04.710Z,4.43
2023-06-11T13:26:32.518Z,5.20
2023-06-11T13:28:59.588Z,5.50
2023-06-11T13:31:28.213Z,5.00
2023-06-11T13:33:54.951Z,5.13
2023-06-11T13:36:22.157Z,5.37
2023-06-11T13:38:49.351Z,4.73
2023-06-11T13:41:16.054Z,5.10
2023-06-11T13:43:42.718Z,5.27
2023-06-11T13:46:09.598Z,4.60
2023-06-11T13:48:36.322Z,4.53
2023-06-11T13:51:03.049Z,5.10
2023-06-11T13:53:29.851Z,5.23
2023-06-11T13:55:56.665Z,5.37
2023-06-11T13:58:23.431Z,4.93
2023-06-11T14:00:53.999Z,5.13
2023-06-11T14:03:23.029Z,5.30
2023-06-11T14:05:49.884Z,4.33
2023-06-11T14:08:19.285Z,5.23
2023-06-11T14:10:46.542Z,5.90
2023-06-11T14:13:13.216Z,5.30
2023-06-11T14:15:40.063Z,4.67
2023-06-11T14:18:07.280Z,4.43
2023-06-11T14:20:34.238Z,5.10
2023-06-11T14:23:01.026Z,3.77
2023-06-11T14:25:27.784Z,5.00
2023-06-11T14:27:56.140Z,5.50
2023-06-11T14:30:23.276Z,4.90
2023-06-11T14:32:50.032Z,5.17
2023-06-11T14:35:16.904Z,4.57
2023-06-11T14:37:43.733Z,5.60
2023-06-11T14:40:11.014Z,4.97
2023-06-11T14:42:38.128Z,4.77
2023-06-11T14:45:07.666Z,4.90
2023-06-11T14:47:34.787Z,5.30
2023-06-11T14:50:01.716Z,4.60
2023-06-11T14:52:28.414Z,5.00
2023-06-11T14:54:55.769Z,4.87
2023-06-11T14:57:25.949Z,4.63
2023-06-11T14:59:53.807Z,4.27
2023-06-11T15:02:21.077Z,4.90
2023-06-11T15:04:51.405Z,5.50
2023-06-11T15:07:29.784Z,4.80
2023-06-11T15:10:05.188Z,5.00
2023-06-11T15:12:32.357Z,5.40
2023-06-11T15:15:01.847Z,5.17
2023-06-11T15:17:31.916Z,5.70
2023-06-11T15:20:01.050Z,4.93
2023-06-11T15:22:27.897Z,4.97
2023-06-11T15:24:54.846Z,4.90
2023-06-11T15:27:21.736Z,5.13
2023-06-11T15:29:51.853Z,4.97
2023-06-11T15:32:20.940Z,4.80
2023-06-11T15:34:48.070Z,5.33
2023-06-11T15:37:14.779Z,5.17
2023-06-11T15:39:41.555Z,4.73
2023-06-11T15:42:08.275Z,4.13
2023-06-11T15:44:35.032Z,5.07
2023-06-11T15:47:01.839Z,4.87
2023-06-11T15:49:31.327Z,4.77
2023-06-11T15:51:59.477Z,5.80
2023-06-11T15:54:26.316Z,4.93
2023-06-11T15:56:53.012Z,5.27
2023-06-11T15:59:19.791Z,5.33
2023-06-11T16:01:46.993Z,5.07
2023-06-11T16:04:14.243Z,5.13
2023-06-11T16:06:41.092Z,5.47
2023-06-11T16:09:09.140Z,4.70
2023-06-11T16:11:36.101Z,5.40
2023-06-11T16:14:02.782Z,5.20
2023-06-11T16:16:29.532Z,4.90
2023-06-11T16:18:56.405Z,4.90
2023-06-11T16:21:23.075Z,4.63
2023-06-11T16:23:49.804Z,4.97
2023-06-11T16:26:16.614Z,4.83
2023-06-11T16:28:43.328Z,4.57
2023-06-11T16:31:10.123Z,5.20
2023-06-11T16:33:52.159Z,5.80
2023-06-11T16:36:23.683Z,5.20
2023-06-11T16:38:50.415Z,5.43
2023-06-11T16:41:19.960Z,4.90
2023-06-11T16:43:49.801Z,4.77
2023-06-11T16:46:17.408Z,5.03
2023-06-11T16:48:47.661Z,4.47
2023-06-11T16:51:14.673Z,5.23
2023-06-11T16:53:41.425Z,4.77
2023-06-11T16:56:08.296Z,5.10
2023-06-11T16:58:35.003Z,4.63
2023-06-11T17:01:01.828Z,4.50
2023-06-11T17:03:28.624Z,4.50
2023-06-11T17:05:55.376Z,5.57
2023-06-11T17:08:22.045Z,4.80
2023-06-11T17:10:48.872Z,5.00
2023-06-11T17:13:15.622Z,4.90
2023-06-11T17:15:42.318Z,5.63
2023-06-11T17:18:09.097Z,4.87
2023-06-11T17:20:40.403Z,5.40
2023-06-11T17:23:08.022Z,4.43
2023-06-11T17:25:34.824Z,4.47
2023-06-11T17:28:01.784Z,4.50
2023-06-11T17:30:28.478Z,4.73
2023-06-11T17:32:56.020Z,5.40
2023-06-11T17:35:23.167Z,4.03
2023-06-11T17:37:50.024Z,5.37
2023-06-11T17:40:17.546Z,4.07
2023-06-11T17:42:45.012Z,4.40
2023-06-11T17:45:11.941Z,4.13
2023-06-11T17:47:38.715Z,4.77
2023-06-11T17:50:06.196Z,4.27
2023-06-11T17:52:33.065Z,4.47
2023-06-11T17:54:59.766Z,5.80
2023-06-11T17:57:26.513Z,4.17
2023-06-11T17:59:53.427Z,4.87
2023-06-11T18:02:20.637Z,5.47
2023-06-11T18:04:47.289Z,5.77
2023-06-11T18:07:14.084Z,4.90
2023-06-11T18:09:40.755Z,4.53
2023-06-11T18:12:07.978Z,5.27
2023-06-11T18:14:34.755Z,5.30
2023-06-11T18:17:01.495Z,4.70
2023-06-11T18:19:28.200Z,4.87
2023-06-11T18:21:55.437Z,5.00
2023-06-11T18:24:23.286Z,4.53
2023-06-11T18:26:50.668Z,4.83
2023-06-11T18:29:17.431Z,5.23
2023-06-11T18:31:44.173Z,6.17
2023-06-11T18:34:10.893Z,4.63
2023-06-11T18:36:37.583Z,4.20
2023-06-11T18:39:04.774Z,4.63
2023-06-11T18:41:31.517Z,4.60
2023-06-11T18:43:58.706Z,4.67
2023-06-11T18:46:26.078Z,4.70
2023-06-11T18:48:52.885Z,4.30
2023-06-11T18:51:20.162Z,3.87
2023-06-11T18:53:47.317Z,5.43
2023-06-11T18:56:16.656Z,4.97
2023-06-11T18:58:43.755Z,4.87
2023-06-11T19:01:10.649Z,5.13
2023-06-11T19:03:40.619Z,4.70
2023-06-11T19:06:09.249Z,4.63
2023-06-11T19:08:35.937Z,4.63
2023-06-11T19:11:03.408Z,4.23
2023-06-11T19:13:30.161Z,4.27
2023-06-11T19:15:57.421Z,4.07
2023-06-11T19:18:24.689Z,4.50
2023-06-11T19:20:51.371Z,4.43
2023-06-11T19:23:18.600Z,4.27
2023-06-11T19:25:45.744Z,4.80
2023-06-11T19:28:12.484Z,4.50
2023-06-11T19:30:39.438Z,4.63
2023-06-11T19:33:06.214Z,4.07
2023-06-11T19:35:35.865Z,5.13
2023-06-11T19:38:02.629Z,4.13
2023-06-11T19:40:29.398Z,4.20
2023-06-11T19:42:56.093Z,5.10
2023-06-11T19:45:23.356Z,5.80
2023-06-11T19:47:50.194Z,4.63
2023-06-11T19:50:16.997Z,5.80
2023-06-11T19:52:44.171Z,6.27
2023-06-11T19:55:11.696Z,5.30
2023-06-11T19:57:39.101Z,5.60
2023-06-11T20:00:06.409Z,5.23
2023-06-11T20:02:33.961Z,6.03
2023-06-11T20:05:00.928Z,6.60
2023-06-11T20:07:28.093Z,5.57
2023-06-11T20:09:55.390Z,4.77
2023-06-11T20:12:22.624Z,4.77
2023-06-11T20:14:49.930Z,5.37
2023-06-11T20:17:16.704Z,5.93
2023-06-11T20:19:45.050Z,5.77
2023-06-11T20:22:11.815Z,5.40
2023-06-11T20:24:39.236Z,6.10
2023-06-11T20:27:06.515Z,5.67
2023-06-11T20:29:33.351Z,5.57
2023-06-11T20:32:00.879Z,6.10
2023-06-11T20:34:27.926Z,5.57
2023-06-11T20:36:54.778Z,5.73
2023-06-11T20:39:21.572Z,6.27
2023-06-11T20:41:48.306Z,6.53
2023-06-11T20:44:15.164Z,5.80
2023-06-11T20:46:42.004Z,6.23
2023-06-11T20:49:09.831Z,6.47
2023-06-11T20:51:37.064Z,6.57
2023-06-11T20:54:04.039Z,5.67
2023-06-11T20:56:31.075Z,6.53
2023-06-11T20:58:57.973Z,5.50
2023-06-11T21:01:24.862Z,5.83
2023-06-11T21:03:51.708Z,5.70
2023-06-11T21:06:18.945Z,6.40
2023-06-11T21:08:45.808Z,6.20
2023-06-11T21:11:13.965Z,6.50
2023-06-11T21:13:41.325Z,6.47
2023-06-11T21:16:08.562Z,6.70
2023-06-11T21:18:35.892Z,6.50
2023-06-11T21:21:03.122Z,6.07
2023-06-11T21:23:29.871Z,7.57
2023-06-11T21:25:57.048Z,6.60
2023-06-11T21:28:24.214Z,5.90
2023-06-11T21:30:51.355Z,6.63
2023-06-11T21:33:18.570Z,6.77
2023-06-11T21:35:50.695Z,5.80
2023-06-11T21:38:18.249Z,6.30
2023-06-11T21:40:45.779Z,7.10
2023-06-11T21:43:12.979Z,7.47
2023-06-11T21:45:39.656Z,7.03
2023-06-11T21:48:06.892Z,6.37
2023-06-11T21:50:34.616Z,6.60
2023-06-11T21:53:02.350Z,8.33
2023-06-11T21:55:29.520Z,6.70
2023-06-11T21:57:57.178Z,6.57
2023-06-11T22:00:24.476Z,7.30
2023-06-11T22:02:51.715Z,8.27
2023-06-11T22:05:19.104Z,7.50
2023-06-11T22:07:46.234Z,6.77
2023-06-11T22:10:13.599Z,7.10
2023-06-11T22:12:43.200Z,6.83
2023-06-11T22:15:11.266Z,7.67
2023-06-11T22:17:40.326Z,8.13
2023-06-11T22:20:08.351Z,7.63
2023-06-11T22:22:39.325Z,7.17
2023-06-11T22:25:09.117Z,7.93
2023-06-11T22:27:36.483Z,7.13
2023-06-11T22:30:03.537Z,6.50
2023-06-11T22:32:30.600Z,7.20
2023-06-11T22:34:57.355Z,7.63
2023-06-11T22:37:24.128Z,7.40
2023-06-11T22:39:52.159Z,7.63
2023-06-11T22:42:19.070Z,7.70
2023-06-11T22:44:46.186Z,7.47
2023-06-11T22:47:12.891Z,7.40
2023-06-11T22:49:39.898Z,7.13
2023-06-11T22:52:08.808Z,7.33
2023-06-11T22:54:39.542Z,7.20
2023-06-11T22:57:09.757Z,7.93
2023-06-11T22:59:36.601Z,7.67
2023-06-11T23:02:03.886Z,7.53
2023-06-11T23:04:34.097Z,8.43
2023-06-11T23:07:03.372Z,7.27
2023-06-11T23:09:31.079Z,7.50
2023-06-11T23:11:58.352Z,7.23
2023-06-11T23:14:25.122Z,8.60
2023-06-11T23:16:52.728Z,7.30
2023-06-11T23:19:25.993Z,6.80
2023-06-11T23:21:57.682Z,7.90
2023-06-11T23:24:27.887Z,7.10
2023-06-11T23:27:03.785Z,8.40
2023-06-11T23:29:30.851Z,6.80
2023-06-11T23:31:58.281Z,7.13
2023-06-11T23:34:25.033Z,7.50
2023-06-11T23:36:51.780Z,7.93
2023-06-11T23:39:19.694Z,7.97
2023-06-11T23:41:47.262Z,7.57
2023-06-11T23:44:13.959Z,8.10
2023-06-11T23:46:40.821Z,8.47
2023-06-11T23:49:07.868Z,7.90
2023-06-11T23:51:34.561Z,7.00
2023-06-11T23:54:01.230Z,7.30
2023-06-11T23:56:30.663Z,7.73
2023-06-11T23:58:57.846Z,6.40
